createdAt,value
2019-02-28T00:00:45.769Z,10.90
2019-02-28T00:01:46.307Z,11.40
2019-02-28T00:02:44.204Z,10.10
2019-02-28T00:03:44.271Z,10.80
2019-02-28T00:04:44.291Z,11.60
2019-02-28T00:05:44.763Z,11.20
2019-02-28T00:06:45.156Z,11.10
2019-02-28T00:07:49.846Z,11.80
2019-02-28T00:08:44.152Z,11.60
2019-02-28T00:09:44.180Z,10.30
2019-02-28T00:10:44.146Z,11.30
2019-02-28T00:11:44.107Z,12.50
2019-02-28T00:12:45.265Z,10.30
2019-02-28T00:13:44.766Z,11.90
2019-02-28T00:14:45.586Z,10.30
2019-02-28T00:15:44.127Z,11.40
2019-02-28T00:16:44.066Z,11.50
2019-02-28T00:17:44.089Z,11.40
2019-02-28T00:18:44.094Z,9.90
2019-02-28T00:19:44.053Z,10.70
2019-02-28T00:20:44.074Z,11.80
2019-02-28T00:21:44.082Z,11.70
2019-02-28T00:22:48.406Z,11.40
2019-02-28T00:23:45.017Z,11.00
2019-02-28T00:24:44.007Z,10.10
2019-02-28T00:25:45.500Z,12.00
2019-02-28T00:26:47.624Z,10.50
2019-02-28T00:27:44.019Z,11.80
2019-02-28T00:28:44.051Z,11.40
2019-02-28T00:29:43.974Z,10.10
2019-02-28T00:30:43.939Z,12.60
2019-02-28T00:31:49.300Z,12.70
2019-02-28T00:32:45.768Z,10.10
2019-02-28T00:33:46.936Z,11.10
2019-02-28T00:34:43.991Z,10.70
2019-02-28T00:35:45.445Z,11.70
2019-02-28T00:36:43.881Z,10.20
2019-02-28T00:37:43.831Z,11.60
2019-02-28T00:38:43.847Z,11.00
2019-02-28T00:39:45.272Z,10.40
2019-02-28T00:40:43.913Z,10.80
2019-02-28T00:41:44.710Z,11.80
2019-02-28T00:42:43.767Z,10.10
2019-02-28T00:43:43.757Z,12.10
2019-02-28T00:44:43.755Z,10.40
2019-02-28T00:45:43.776Z,10.90
2019-02-28T00:46:45.429Z,11.70
2019-02-28T00:47:43.731Z,13.20
2019-02-28T00:48:43.710Z,11.80
2019-02-28T00:49:43.693Z,10.70
2019-02-28T00:50:52.949Z,12.00
2019-02-28T00:51:43.705Z,12.20
2019-02-28T00:52:43.750Z,10.80
2019-02-28T00:53:43.747Z,10.90
2019-02-28T00:54:44.524Z,11.50
2019-02-28T00:55:45.893Z,11.50
2019-02-28T00:56:43.629Z,11.20
2019-02-28T00:57:43.639Z,12.40
2019-02-28T00:58:43.648Z,10.40
2019-02-28T00:59:43.617Z,10.70
2019-02-28T01:00:43.592Z,10.80
2019-02-28T01:01:45.982Z,10.60
2019-02-28T01:02:43.651Z,10.20
2019-02-28T01:03:43.588Z,11.40
2019-02-28T01:04:43.578Z,10.70
2019-02-28T01:05:43.530Z,11.10
2019-02-28T01:06:43.601Z,9.70
2019-02-28T01:07:43.600Z,10.70
2019-02-28T01:08:43.533Z,11.60
2019-02-28T01:09:43.511Z,11.90
2019-02-28T01:10:43.548Z,12.20
2019-02-28T01:11:44.946Z,11.40
2019-02-28T01:12:44.300Z,11.40
2019-02-28T01:13:43.519Z,11.30
2019-02-28T01:14:43.460Z,12.80
2019-02-28T01:15:45.106Z,10.30
2019-02-28T01:16:43.413Z,10.50
2019-02-28T01:17:43.456Z,11.50
2019-02-28T01:18:43.403Z,10.90
2019-02-28T01:19:43.449Z,11.70
2019-02-28T01:20:43.462Z,11.00
2019-02-28T01:21:43.362Z,10.80
2019-02-28T01:22:43.378Z,12.70
2019-02-28T01:23:43.341Z,10.80
2019-02-28T01:24:43.353Z,11.60
2019-02-28T01:25:43.357Z,10.90
2019-02-28T01:26:46.664Z,11.00
2019-02-28T01:27:43.319Z,11.00
2019-02-28T01:28:43.296Z,12.20
2019-02-28T01:29:43.330Z,10.90
2019-02-28T01:30:43.315Z,12.10
2019-02-28T01:31:43.424Z,11.90
2019-02-28T01:32:43.285Z,11.00
2019-02-28T01:33:43.246Z,11.40
2019-02-28T01:34:43.251Z,11.00
2019-02-28T01:35:43.327Z,11.40
2019-02-28T01:36:45.863Z,12.80
2019-02-28T01:37:44.239Z,11.00
2019-02-28T01:38:43.289Z,10.20
2019-02-28T01:39:43.291Z,11.00
2019-02-28T01:40:43.807Z,11.20
2019-02-28T01:41:45.190Z,10.80
2019-02-28T01:42:43.207Z,13.80
2019-02-28T01:43:43.214Z,11.50
2019-02-28T01:44:43.189Z,12.20
2019-02-28T01:45:44.278Z,13.50
2019-02-28T01:46:43.197Z,11.40
2019-02-28T01:47:43.196Z,10.70
2019-02-28T01:48:43.117Z,12.60
2019-02-28T01:49:43.098Z,13.10
2019-02-28T01:50:43.104Z,11.60
2019-02-28T01:51:43.081Z,12.10
2019-02-28T01:52:45.946Z,13.40
2019-02-28T01:53:43.037Z,12.30
2019-02-28T01:54:43.025Z,10.70
2019-02-28T01:55:43.025Z,11.90
2019-02-28T01:56:43.055Z,11.50
2019-02-28T01:57:44.391Z,12.80
2019-02-28T01:58:42.979Z,11.00
2019-02-28T01:59:43.066Z,13.20
2019-02-28T02:00:43.013Z,14.20
2019-02-28T02:01:43.040Z,12.20
2019-02-28T02:02:43.050Z,16.60
2019-02-28T02:03:42.954Z,18.90
2019-02-28T02:04:43.176Z,15.10
2019-02-28T02:05:42.947Z,12.50
2019-02-28T02:06:42.943Z,11.50
2019-02-28T02:07:42.919Z,13.00
2019-02-28T02:08:42.938Z,12.20
2019-02-28T02:09:46.136Z,13.60
2019-02-28T02:10:42.936Z,11.30
2019-02-28T02:11:42.893Z,12.00
2019-02-28T02:12:42.955Z,12.40
2019-02-28T02:13:42.847Z,13.00
2019-02-28T02:14:45.689Z,13.10
2019-02-28T02:15:42.816Z,14.00
2019-02-28T02:16:42.874Z,12.70
2019-02-28T02:17:42.790Z,11.60
2019-02-28T02:18:43.419Z,11.00
2019-02-28T02:19:42.782Z,13.50
2019-02-28T02:20:42.808Z,13.40
2019-02-28T02:21:42.768Z,13.50
2019-02-28T02:22:44.558Z,12.60
2019-02-28T02:23:42.857Z,11.80
2019-02-28T02:24:42.713Z,12.70
2019-02-28T02:25:42.731Z,10.60
2019-02-28T02:26:45.162Z,13.50
2019-02-28T02:27:42.708Z,12.20
2019-02-28T02:28:42.668Z,11.90
2019-02-28T02:29:42.698Z,12.50
2019-02-28T02:30:42.693Z,13.10
2019-02-28T02:31:43.655Z,13.10
2019-02-28T02:32:42.669Z,13.50
2019-02-28T02:33:42.663Z,12.10
2019-02-28T02:34:42.662Z,12.80
2019-02-28T02:35:43.626Z,12.70
2019-02-28T02:36:42.590Z,11.50
2019-02-28T02:37:42.619Z,13.20
2019-02-28T02:38:42.571Z,13.60
2019-02-28T02:39:42.610Z,13.70
2019-02-28T02:40:42.550Z,13.30
2019-02-28T02:41:42.548Z,12.90
2019-02-28T02:42:47.438Z,12.20
2019-02-28T02:43:43.536Z,13.40
2019-02-28T02:44:42.531Z,12.70
2019-02-28T02:45:43.834Z,13.40
2019-02-28T02:46:43.544Z,13.40
2019-02-28T02:47:42.837Z,11.70
2019-02-28T02:48:43.450Z,11.80
2019-02-28T02:49:43.316Z,13.70
2019-02-28T02:50:43.582Z,13.30
2019-02-28T02:51:49.068Z,13.30
2019-02-28T02:52:43.416Z,13.50
2019-02-28T02:53:43.383Z,13.40
2019-02-28T02:54:42.413Z,14.40
2019-02-28T02:55:42.453Z,13.70
2019-02-28T02:56:42.472Z,13.00
2019-02-28T02:57:42.433Z,14.30
2019-02-28T02:58:42.370Z,12.10
2019-02-28T02:59:42.387Z,13.60
2019-02-28T03:00:49.737Z,15.60
2019-02-28T03:01:43.393Z,19.40
2019-02-28T03:02:42.351Z,14.40
2019-02-28T03:03:44.188Z,14.70
2019-02-28T03:04:42.317Z,14.20
2019-02-28T03:05:42.278Z,14.30
2019-02-28T03:06:45.914Z,15.20
2019-02-28T03:07:42.319Z,14.10
2019-02-28T03:08:42.264Z,13.70
2019-02-28T03:09:43.320Z,13.60
2019-02-28T03:10:42.244Z,15.80
2019-02-28T03:11:42.223Z,13.60
2019-02-28T03:12:42.297Z,15.90
2019-02-28T03:13:43.993Z,13.60
2019-02-28T03:14:42.247Z,14.10
2019-02-28T03:15:46.844Z,15.60
2019-02-28T03:16:42.823Z,14.90
2019-02-28T03:17:46.668Z,15.00
2019-02-28T03:18:43.190Z,15.60
2019-02-28T03:19:42.165Z,14.30
2019-02-28T03:20:42.470Z,13.50
2019-02-28T03:21:42.150Z,15.90
2019-02-28T03:22:42.126Z,15.90
2019-02-28T03:23:42.130Z,13.70
2019-02-28T03:24:52.356Z,15.80
2019-02-28T03:25:42.069Z,15.30
2019-02-28T03:26:43.352Z,17.60
2019-02-28T03:27:42.071Z,15.60
2019-02-28T03:28:42.055Z,15.40
2019-02-28T03:29:43.787Z,17.50
2019-02-28T03:30:42.012Z,16.50
2019-02-28T03:31:42.028Z,17.20
2019-02-28T03:32:42.809Z,16.10
2019-02-28T03:33:42.013Z,16.60
2019-02-28T03:34:54.687Z,15.40
2019-02-28T03:35:44.143Z,20.10
2019-02-28T03:36:41.995Z,17.40
2019-02-28T03:37:41.941Z,18.30
2019-02-28T03:38:48.595Z,64.40
2019-02-28T03:39:42.961Z,75.00
2019-02-28T03:40:41.918Z,63.10
2019-02-28T03:41:41.900Z,27.30
2019-02-28T03:42:41.947Z,33.70
2019-02-28T03:43:43.926Z,23.00
2019-02-28T03:44:41.886Z,24.50
2019-02-28T03:45:41.885Z,22.00
2019-02-28T03:46:46.439Z,23.70
2019-02-28T03:47:42.837Z,21.40
2019-02-28T03:48:41.860Z,28.10
2019-02-28T03:49:48.686Z,20.70
2019-02-28T03:50:42.862Z,23.20
2019-02-28T03:51:41.817Z,21.90
2019-02-28T03:52:43.831Z,20.20
2019-02-28T03:53:41.778Z,19.80
2019-02-28T03:54:41.776Z,20.10
2019-02-28T03:55:41.774Z,19.60
2019-02-28T03:56:41.769Z,15.90
2019-02-28T03:57:41.781Z,16.90
2019-02-28T03:58:42.964Z,16.60
2019-02-28T03:59:41.746Z,16.50
2019-02-28T04:00:41.703Z,16.40
2019-02-28T04:01:45.679Z,17.30
2019-02-28T04:02:41.692Z,16.30
2019-02-28T04:03:41.716Z,18.50
2019-02-28T04:04:48.779Z,17.50
2019-02-28T04:05:42.704Z,16.50
2019-02-28T04:06:41.673Z,17.50
2019-02-28T04:07:41.671Z,18.70
2019-02-28T04:08:41.646Z,16.30
2019-02-28T04:09:44.291Z,17.70
2019-02-28T04:10:41.621Z,16.70
2019-02-28T04:11:41.613Z,16.80
2019-02-28T04:12:45.933Z,17.70
2019-02-28T04:13:42.586Z,17.70
2019-02-28T04:14:41.568Z,17.10
2019-02-28T04:16:07.418Z,16.20
2019-02-28T04:16:53.056Z,17.00
2019-02-28T04:18:52.667Z,17.90
2019-02-28T04:21:02.754Z,17.50
2019-02-28T04:22:12.152Z,17.40
2019-02-28T04:23:11.699Z,18.70
2019-02-28T04:24:02.729Z,17.70
2019-02-28T04:25:02.729Z,18.40
2019-02-28T04:26:03.619Z,18.40
2019-02-28T04:27:06.760Z,19.50
2019-02-28T04:28:03.735Z,19.00
2019-02-28T04:29:02.683Z,18.90
2019-02-28T04:30:07.940Z,17.70
2019-02-28T04:31:03.687Z,19.20
2019-02-28T04:32:02.654Z,17.60
2019-02-28T04:33:02.682Z,18.90
2019-02-28T04:34:02.633Z,18.20
2019-02-28T04:35:02.608Z,20.10
2019-02-28T04:36:02.615Z,19.70
2019-02-28T04:37:02.622Z,20.90
2019-02-28T04:38:02.583Z,17.80
2019-02-28T04:39:02.607Z,23.50
2019-02-28T04:40:02.581Z,19.50
2019-02-28T04:41:02.584Z,19.90
2019-02-28T04:42:05.013Z,19.50
2019-02-28T04:43:02.535Z,22.20
2019-02-28T04:44:02.518Z,19.90
2019-02-28T04:45:02.520Z,19.70
2019-02-28T04:46:02.502Z,19.50
2019-02-28T04:47:03.365Z,20.40
2019-02-28T04:48:02.477Z,20.20
2019-02-28T04:49:02.489Z,20.80
2019-02-28T04:50:02.489Z,20.60
2019-02-28T04:51:05.717Z,21.30
2019-02-28T04:52:02.478Z,21.70
2019-02-28T04:53:02.445Z,21.80
2019-02-28T04:54:02.411Z,21.20
2019-02-28T04:55:03.819Z,22.00
2019-02-28T04:56:02.419Z,21.70
2019-02-28T04:57:02.423Z,22.60
2019-02-28T04:58:02.384Z,21.90
2019-02-28T04:59:02.358Z,21.10
2019-02-28T05:00:02.356Z,23.00
2019-02-28T05:01:02.362Z,22.70
2019-02-28T05:02:02.360Z,25.60
2019-02-28T05:03:02.328Z,24.40
2019-02-28T05:04:02.985Z,25.00
2019-02-28T05:05:02.305Z,23.70
2019-02-28T05:06:02.302Z,25.00
2019-02-28T05:07:02.294Z,25.60
2019-02-28T05:08:05.760Z,27.20
2019-02-28T05:09:02.267Z,26.70
2019-02-28T05:10:02.268Z,25.20
2019-02-28T05:11:02.227Z,27.60
2019-02-28T05:12:02.447Z,26.30
2019-02-28T05:13:02.227Z,27.40
2019-02-28T05:14:02.202Z,26.40
2019-02-28T05:15:02.632Z,25.80
2019-02-28T05:16:02.217Z,25.60
2019-02-28T05:17:02.182Z,28.10
2019-02-28T05:18:02.201Z,27.10
2019-02-28T05:19:02.378Z,29.10
2019-02-28T05:20:02.157Z,29.00
2019-02-28T05:21:02.145Z,26.90
2019-02-28T05:22:02.139Z,29.10
2019-02-28T05:23:02.883Z,30.30
2019-02-28T05:24:02.126Z,34.50
2019-02-28T05:25:02.113Z,31.10
2019-02-28T05:26:02.091Z,31.70
2019-02-28T05:27:02.088Z,30.70
2019-02-28T05:28:02.080Z,31.60
2019-02-28T05:29:04.345Z,31.60
2019-02-28T05:30:02.066Z,30.70
2019-02-28T05:31:02.498Z,29.60
2019-02-28T05:32:02.043Z,28.80
2019-02-28T05:33:02.023Z,30.10
2019-02-28T05:34:02.035Z,28.30
2019-02-28T05:35:02.101Z,32.40
2019-02-28T05:36:04.339Z,33.30
2019-02-28T05:37:01.968Z,33.30
2019-02-28T05:38:01.933Z,29.50
2019-02-28T05:39:01.975Z,30.10
2019-02-28T05:40:05.585Z,32.20
2019-02-28T05:41:02.328Z,32.40
2019-02-28T05:42:01.945Z,31.50
2019-02-28T05:43:01.945Z,32.40
2019-02-28T05:44:03.295Z,31.00
2019-02-28T05:45:01.882Z,31.60
2019-02-28T05:46:01.878Z,31.50
2019-02-28T05:47:01.859Z,33.90
2019-02-28T05:48:03.778Z,34.70
2019-02-28T05:50:19.233Z,32.80
2019-02-28T05:51:18.903Z,35.70
2019-02-28T05:52:19.870Z,37.30
2019-02-28T05:53:18.862Z,33.50
2019-02-28T05:54:18.856Z,35.20
2019-02-28T05:55:24.449Z,34.20
2019-02-28T05:56:19.837Z,33.80
2019-02-28T05:57:18.990Z,34.50
2019-02-28T05:58:20.724Z,37.20
2019-02-28T05:59:26.429Z,35.50
2019-02-28T06:00:24.832Z,42.70
2019-02-28T06:01:19.152Z,38.20
2019-02-28T06:02:22.312Z,41.60
2019-02-28T06:03:19.292Z,45.50
2019-02-28T06:04:18.796Z,45.90
2019-02-28T06:05:18.868Z,42.20
2019-02-28T06:06:24.606Z,44.60
2019-02-28T06:07:22.031Z,42.40
2019-02-28T06:08:18.741Z,53.30
2019-02-28T06:09:21.961Z,47.60
2019-02-28T06:10:24.651Z,44.50
2019-02-28T06:11:31.404Z,39.80
2019-02-28T06:12:21.446Z,39.80
2019-02-28T06:13:24.632Z,39.20
2019-02-28T06:14:27.799Z,43.60
2019-02-28T06:15:23.186Z,40.00
2019-02-28T06:16:19.239Z,45.60
2019-02-28T06:17:20.642Z,47.20
2019-02-28T06:18:22.166Z,43.40
2019-02-28T06:19:20.291Z,44.10
2019-02-28T06:20:20.523Z,41.80
2019-02-28T06:21:23.423Z,45.50
2019-02-28T06:22:20.515Z,42.60
2019-02-28T06:23:18.821Z,41.90
2019-02-28T06:24:20.377Z,41.90
2019-02-28T06:25:23.937Z,40.70
2019-02-28T06:26:19.964Z,39.50
2019-02-28T06:27:18.530Z,46.40
2019-02-28T06:28:18.500Z,40.60
2019-02-28T06:29:18.531Z,41.60
2019-02-28T06:30:18.482Z,40.10
2019-02-28T06:31:18.515Z,41.00
2019-02-28T06:32:23.246Z,40.30
2019-02-28T06:33:21.166Z,42.80
2019-02-28T06:34:18.437Z,41.30
2019-02-28T06:35:20.383Z,53.10
2019-02-28T06:36:18.406Z,42.30
2019-02-28T06:37:18.433Z,44.00
2019-02-28T06:38:19.228Z,41.50
2019-02-28T06:39:18.388Z,41.70
2019-02-28T06:40:18.448Z,43.00
2019-02-28T06:41:18.404Z,43.80
2019-02-28T06:42:18.360Z,50.10
2019-02-28T06:43:19.491Z,50.30
2019-02-28T06:44:18.339Z,46.80
2019-02-28T06:45:18.350Z,48.80
2019-02-28T06:46:18.320Z,45.90
2019-02-28T06:47:18.334Z,43.90
2019-02-28T06:48:20.847Z,47.00
2019-02-28T06:49:19.319Z,43.30
2019-02-28T06:50:18.283Z,47.40
2019-02-28T06:51:18.280Z,42.90
2019-02-28T06:52:18.270Z,47.30
2019-02-28T06:53:18.244Z,46.30
2019-02-28T06:54:18.220Z,44.70
2019-02-28T06:55:18.209Z,45.50
2019-02-28T06:56:22.200Z,45.10
2019-02-28T06:57:18.195Z,46.80
2019-02-28T06:58:18.184Z,47.20
2019-02-28T06:59:18.168Z,45.30
2019-02-28T07:00:18.144Z,46.40
2019-02-28T07:01:19.216Z,43.90
2019-02-28T07:02:18.153Z,46.10
2019-02-28T07:03:18.150Z,45.70
2019-02-28T07:04:18.141Z,48.10
2019-02-28T07:05:18.111Z,45.30
2019-02-28T07:06:18.087Z,46.40
2019-02-28T07:07:18.147Z,45.80
2019-02-28T07:08:20.713Z,48.60
2019-02-28T07:09:19.084Z,47.10
2019-02-28T07:10:18.051Z,46.10
2019-02-28T07:11:19.902Z,46.90
2019-02-28T07:12:18.025Z,48.00
2019-02-28T07:13:18.025Z,48.80
2019-02-28T07:14:18.055Z,46.00
2019-02-28T07:15:23.236Z,50.30
2019-02-28T07:16:18.993Z,48.90
2019-02-28T07:17:17.968Z,48.60
2019-02-28T07:18:18.811Z,49.20
2019-02-28T07:19:17.963Z,50.50
2019-02-28T07:20:17.963Z,45.90
2019-02-28T07:21:17.937Z,47.90
2019-02-28T07:22:19.694Z,48.60
2019-02-28T07:23:18.713Z,49.10
2019-02-28T07:24:17.897Z,46.50
2019-02-28T07:25:17.910Z,47.90
2019-02-28T07:26:18.790Z,48.20
2019-02-28T07:27:17.862Z,49.20
2019-02-28T07:28:17.883Z,47.30
2019-02-28T07:29:17.852Z,48.50
2019-02-28T07:30:19.008Z,48.70
2019-02-28T07:31:17.855Z,47.30
2019-02-28T07:32:17.834Z,47.40
2019-02-28T07:33:17.814Z,54.60
2019-02-28T07:34:21.961Z,50.60
2019-02-28T07:35:18.818Z,52.40
2019-02-28T07:36:17.769Z,54.10
2019-02-28T07:37:19.043Z,52.00
2019-02-28T07:38:17.763Z,49.90
2019-02-28T07:39:17.749Z,53.10
2019-02-28T07:40:17.725Z,52.90
2019-02-28T07:41:17.734Z,53.00
2019-02-28T07:42:17.739Z,50.60
2019-02-28T07:43:17.722Z,51.00
2019-02-28T07:44:21.044Z,52.90
2019-02-28T07:45:17.679Z,51.00
2019-02-28T07:46:17.669Z,50.20
2019-02-28T07:47:18.386Z,51.30
2019-02-28T07:48:17.666Z,51.40
2019-02-28T07:49:17.646Z,51.70
2019-02-28T07:50:17.651Z,53.70
2019-02-28T07:51:18.336Z,48.90
2019-02-28T07:52:17.635Z,52.50
2019-02-28T07:53:17.630Z,51.30
2019-02-28T07:54:17.677Z,53.90
2019-02-28T07:55:17.667Z,51.20
2019-02-28T07:56:17.568Z,53.50
2019-02-28T07:57:17.982Z,54.40
2019-02-28T07:58:17.602Z,54.20
2019-02-28T07:59:17.549Z,52.90
2019-02-28T08:00:18.686Z,57.70
2019-02-28T08:01:18.405Z,56.40
2019-02-28T08:02:17.496Z,59.10
2019-02-28T08:03:17.517Z,54.30
2019-02-28T08:04:18.390Z,52.40
2019-02-28T08:05:17.495Z,52.80
2019-02-28T08:06:17.477Z,53.60
2019-02-28T08:07:17.452Z,55.40
2019-02-28T08:08:17.480Z,54.50
2019-02-28T08:09:17.440Z,55.30
2019-02-28T08:10:17.455Z,57.80
2019-02-28T08:11:20.017Z,54.90
2019-02-28T08:12:17.419Z,55.30
2019-02-28T08:13:17.399Z,59.60
2019-02-28T08:14:17.391Z,59.60
2019-02-28T08:15:21.077Z,60.40
2019-02-28T08:16:17.383Z,62.00
2019-02-28T08:17:17.363Z,58.60
2019-02-28T08:18:18.890Z,60.00
2019-02-28T08:19:17.324Z,60.00
2019-02-28T08:20:17.377Z,61.90
2019-02-28T08:21:17.333Z,59.20
2019-02-28T08:22:23.336Z,57.40
2019-02-28T08:23:18.270Z,61.00
2019-02-28T08:24:17.282Z,61.60
2019-02-28T08:25:17.260Z,58.70
2019-02-28T08:26:18.870Z,60.50
2019-02-28T08:27:17.273Z,54.90
2019-02-28T08:28:17.276Z,58.00
2019-02-28T08:29:17.235Z,61.90
2019-02-28T08:30:19.576Z,59.20
2019-02-28T08:31:17.243Z,60.00
2019-02-28T08:32:17.200Z,57.50
2019-02-28T08:33:17.240Z,58.40
2019-02-28T08:34:17.155Z,66.60
2019-02-28T08:35:17.156Z,63.30
2019-02-28T08:36:17.179Z,64.60
2019-02-28T08:37:19.014Z,59.60
2019-02-28T08:38:17.122Z,65.00
2019-02-28T08:39:17.096Z,60.20
2019-02-28T08:40:17.095Z,61.80
2019-02-28T08:41:17.097Z,61.80
2019-02-28T08:42:17.098Z,59.80
2019-02-28T08:43:26.644Z,61.90
2019-02-28T08:44:22.821Z,62.00
2019-02-28T08:45:18.061Z,62.20
2019-02-28T08:46:17.043Z,59.60
2019-02-28T08:47:17.804Z,58.70
2019-02-28T08:48:17.017Z,58.00
2019-02-28T08:49:16.989Z,59.90
2019-02-28T08:50:20.652Z,59.80
2019-02-28T08:51:16.978Z,56.10
2019-02-28T08:52:16.978Z,55.70
2019-02-28T08:53:16.965Z,58.30
2019-02-28T08:54:16.954Z,59.10
2019-02-28T08:55:16.941Z,58.50
2019-02-28T08:56:16.923Z,57.00
2019-02-28T08:57:16.941Z,58.10
2019-02-28T08:58:16.912Z,58.90
2019-02-28T08:59:20.436Z,61.30
2019-02-28T09:00:17.888Z,59.90
2019-02-28T09:01:16.876Z,56.00
2019-02-28T09:02:18.163Z,60.30
2019-02-28T09:03:16.861Z,58.60
2019-02-28T09:04:16.848Z,58.80
2019-02-28T09:05:16.828Z,59.10
2019-02-28T09:06:16.826Z,57.40
2019-02-28T09:07:16.819Z,60.70
2019-02-28T09:08:16.845Z,61.20
2019-02-28T09:09:16.794Z,59.80
2019-02-28T09:10:16.776Z,58.90
2019-02-28T09:11:20.639Z,61.60
2019-02-28T09:12:16.777Z,61.00
2019-02-28T09:13:16.776Z,61.10
2019-02-28T09:14:17.855Z,63.70
2019-02-28T09:15:16.737Z,60.40
2019-02-28T09:16:16.854Z,61.20
2019-02-28T09:17:18.613Z,63.40
2019-02-28T09:18:16.778Z,64.70
2019-02-28T09:19:16.682Z,61.90
2019-02-28T09:20:16.680Z,61.20
2019-02-28T09:21:18.313Z,72.70
2019-02-28T09:22:16.648Z,62.70
2019-02-28T09:23:16.708Z,68.60
2019-02-28T09:24:16.639Z,64.40
2019-02-28T09:25:26.998Z,64.60
2019-02-28T09:26:16.598Z,62.40
2019-02-28T09:27:16.601Z,59.50
2019-02-28T09:28:16.578Z,61.50
2019-02-28T09:29:18.290Z,60.30
2019-02-28T09:30:16.548Z,62.30
2019-02-28T09:31:16.609Z,63.50
2019-02-28T09:32:17.588Z,62.90
2019-02-28T09:33:19.383Z,59.80
2019-02-28T09:34:17.547Z,59.40
2019-02-28T09:35:16.559Z,60.00
2019-02-28T09:36:20.249Z,59.70
2019-02-28T09:37:16.479Z,61.40
2019-02-28T09:38:16.479Z,62.60
2019-02-28T09:39:19.553Z,60.10
2019-02-28T09:40:16.520Z,59.60
2019-02-28T09:41:16.460Z,59.90
2019-02-28T09:42:16.466Z,60.00
2019-02-28T09:43:16.937Z,58.80
2019-02-28T09:44:16.475Z,61.20
2019-02-28T09:45:16.491Z,61.20
2019-02-28T09:46:16.636Z,60.20
2019-02-28T09:47:16.436Z,63.50
2019-02-28T09:48:16.408Z,66.50
2019-02-28T09:49:17.268Z,67.00
2019-02-28T09:50:19.379Z,66.70
2019-02-28T09:51:18.914Z,60.20
2019-02-28T09:52:17.272Z,59.20
2019-02-28T09:53:16.753Z,56.50
2019-02-28T09:54:16.526Z,63.30
2019-02-28T09:55:16.460Z,60.30
2019-02-28T09:56:16.458Z,65.40
2019-02-28T09:57:18.915Z,66.90
2019-02-28T09:58:16.276Z,65.20
2019-02-28T09:59:16.276Z,61.70
2019-02-28T10:00:16.244Z,58.70
2019-02-28T10:01:16.337Z,58.70
2019-02-28T10:02:16.264Z,60.40
2019-02-28T10:03:18.683Z,58.50
2019-02-28T10:04:16.279Z,56.10
2019-02-28T10:05:16.194Z,57.30
2019-02-28T10:06:16.571Z,58.30
2019-02-28T10:07:16.166Z,56.80
2019-02-28T10:08:16.185Z,56.70
2019-02-28T10:09:17.687Z,55.60
2019-02-28T10:10:17.499Z,57.10
2019-02-28T10:11:16.163Z,55.30
2019-02-28T10:12:16.145Z,56.50
2019-02-28T10:13:18.271Z,58.80
2019-02-28T10:14:16.109Z,56.50
2019-02-28T10:15:16.454Z,61.30
2019-02-28T10:16:16.740Z,59.60
2019-02-28T10:17:17.798Z,60.70
2019-02-28T10:18:16.774Z,57.60
2019-02-28T10:19:16.060Z,57.40
2019-02-28T10:20:16.476Z,55.20
2019-02-28T10:21:16.033Z,55.30
2019-02-28T10:22:16.124Z,51.40
2019-02-28T10:23:18.469Z,52.70
2019-02-28T10:24:17.012Z,54.00
2019-02-28T10:25:15.972Z,54.40
2019-02-28T10:26:17.293Z,55.20
2019-02-28T10:27:15.971Z,60.30
2019-02-28T10:28:15.941Z,53.60
2019-02-28T10:29:15.998Z,53.90
2019-02-28T10:30:16.755Z,55.60
2019-02-28T10:31:15.951Z,61.10
2019-02-28T10:32:15.978Z,58.20
2019-02-28T10:33:17.363Z,58.10
2019-02-28T10:34:15.893Z,55.50
2019-02-28T10:35:15.878Z,56.30
2019-02-28T10:36:15.873Z,52.70
2019-02-28T10:37:15.861Z,52.60
2019-02-28T10:38:15.858Z,53.00
2019-02-28T10:39:15.836Z,55.60
2019-02-28T10:40:17.879Z,52.70
2019-02-28T10:41:16.210Z,53.50
2019-02-28T10:42:16.639Z,52.00
2019-02-28T10:43:16.554Z,50.90
2019-02-28T10:44:15.849Z,53.60
2019-02-28T10:45:15.945Z,56.20
2019-02-28T10:46:16.954Z,52.40
2019-02-28T10:47:16.785Z,52.50
2019-02-28T10:48:15.843Z,51.30
2019-02-28T10:49:16.881Z,55.60
2019-02-28T10:50:15.906Z,56.20
2019-02-28T10:51:15.783Z,56.00
2019-02-28T10:52:15.712Z,55.40
2019-02-28T10:53:15.810Z,59.50
2019-02-28T10:54:17.425Z,52.00
2019-02-28T10:55:15.688Z,53.50
2019-02-28T10:56:16.292Z,55.90
2019-02-28T10:57:16.316Z,57.60
2019-02-28T10:58:16.205Z,56.50
2019-02-28T10:59:16.292Z,51.50
2019-02-28T11:00:15.850Z,53.70
2019-02-28T11:01:15.631Z,53.70
2019-02-28T11:02:19.027Z,51.10
2019-02-28T11:03:15.595Z,54.60
2019-02-28T11:04:15.567Z,52.00
2019-02-28T11:05:18.768Z,55.10
2019-02-28T11:06:15.550Z,54.00
2019-02-28T11:07:15.552Z,52.80
2019-02-28T11:08:18.347Z,54.10
2019-02-28T11:09:18.376Z,53.50
2019-02-28T11:10:16.580Z,52.30
2019-02-28T11:11:15.549Z,51.30
2019-02-28T11:12:19.629Z,56.70
2019-02-28T11:13:15.486Z,52.60
2019-02-28T11:14:15.528Z,53.20
2019-02-28T11:15:15.529Z,55.30
2019-02-28T11:16:15.600Z,54.30
2019-02-28T11:17:15.625Z,53.40
2019-02-28T11:18:15.477Z,53.10
2019-02-28T11:19:18.677Z,55.20
2019-02-28T11:20:22.186Z,53.10
2019-02-28T11:21:16.424Z,55.20
2019-02-28T11:22:15.410Z,54.10
2019-02-28T11:23:15.928Z,55.00
2019-02-28T11:24:15.371Z,56.50
2019-02-28T11:25:15.350Z,54.30
2019-02-28T11:26:15.393Z,54.10
2019-02-28T11:27:16.160Z,59.30
2019-02-28T11:28:15.312Z,53.20
2019-02-28T11:29:15.322Z,55.80
2019-02-28T11:30:15.297Z,58.40
2019-02-28T11:31:16.341Z,57.20
2019-02-28T11:32:15.322Z,57.20
2019-02-28T11:33:15.285Z,60.10
2019-02-28T11:34:15.905Z,57.90
2019-02-28T11:35:15.268Z,58.40
2019-02-28T11:36:15.320Z,59.50
2019-02-28T11:37:15.267Z,57.90
2019-02-28T11:38:20.333Z,56.80
2019-02-28T11:39:16.228Z,54.90
2019-02-28T11:40:15.260Z,55.60
2019-02-28T11:41:15.470Z,59.70
2019-02-28T11:42:15.175Z,59.10
2019-02-28T11:43:15.270Z,64.10
2019-02-28T11:44:15.171Z,61.70
2019-02-28T11:45:15.223Z,63.00
2019-02-28T11:46:15.249Z,64.10
2019-02-28T11:47:15.239Z,66.80
2019-02-28T11:48:19.062Z,58.90
2019-02-28T11:49:15.117Z,61.30
2019-02-28T11:50:15.140Z,63.20
2019-02-28T11:51:17.750Z,63.70
2019-02-28T11:52:16.021Z,60.50
2019-02-28T11:53:15.112Z,64.30
2019-02-28T11:54:15.080Z,63.40
2019-02-28T11:55:16.886Z,68.90
2019-02-28T11:56:16.040Z,66.80
2019-02-28T11:57:15.065Z,65.50
2019-02-28T11:58:17.666Z,71.90
2019-02-28T11:59:15.034Z,91.90
2019-02-28T12:00:14.981Z,61.20
2019-02-28T12:01:14.984Z,67.70
2019-02-28T12:02:14.981Z,78.70
2019-02-28T12:03:14.955Z,69.40
2019-02-28T12:04:14.955Z,70.20
2019-02-28T12:05:15.681Z,63.20
2019-02-28T12:06:14.946Z,59.20
2019-02-28T12:07:14.913Z,60.50
2019-02-28T12:08:14.884Z,56.30
2019-02-28T12:09:16.359Z,57.60
2019-02-28T12:10:14.874Z,56.60
2019-02-28T12:11:14.895Z,57.50
2019-02-28T12:12:14.852Z,58.20
2019-02-28T12:13:16.510Z,57.50
2019-02-28T12:14:14.826Z,59.30
2019-02-28T12:15:14.859Z,56.30
2019-02-28T12:16:16.201Z,53.10
2019-02-28T12:17:15.159Z,52.10
2019-02-28T12:18:14.782Z,51.80
2019-02-28T12:19:15.870Z,56.90
2019-02-28T12:20:14.795Z,55.60
2019-02-28T12:21:14.811Z,52.00
2019-02-28T12:22:14.774Z,52.90
2019-02-28T12:23:14.740Z,55.60
2019-02-28T12:24:14.727Z,53.50
2019-02-28T12:25:14.713Z,55.20
2019-02-28T12:26:17.760Z,51.40
2019-02-28T12:27:14.717Z,51.10
2019-02-28T12:28:14.704Z,50.90
2019-02-28T12:29:14.676Z,54.90
2019-02-28T12:30:14.690Z,53.40
2019-02-28T12:31:14.638Z,56.30
2019-02-28T12:32:14.648Z,54.70
2019-02-28T12:33:18.334Z,51.20
2019-02-28T12:34:15.178Z,54.80
2019-02-28T12:35:14.637Z,52.50
2019-02-28T12:36:15.279Z,50.50
2019-02-28T12:37:14.622Z,51.20
2019-02-28T12:38:14.594Z,50.90
2019-02-28T12:39:14.566Z,53.00
2019-02-28T12:40:14.606Z,54.80
2019-02-28T12:41:14.574Z,52.20
2019-02-28T12:42:14.565Z,53.40
2019-02-28T12:43:14.546Z,48.80
2019-02-28T12:44:15.440Z,51.60
2019-02-28T12:45:14.505Z,50.30
2019-02-28T12:46:14.507Z,52.00
2019-02-28T12:47:14.481Z,49.10
2019-02-28T12:48:14.701Z,48.70
2019-02-28T12:49:14.440Z,50.20
2019-02-28T12:50:14.452Z,53.30
2019-02-28T12:51:14.433Z,50.30
2019-02-28T12:52:15.351Z,56.10
2019-02-28T12:53:14.413Z,56.90
2019-02-28T12:54:14.425Z,54.40
2019-02-28T12:55:14.396Z,50.90
2019-02-28T12:56:14.965Z,53.10